createdAt,value
2023-02-02T00:02:24.114Z,18.90
2023-02-02T00:04:52.181Z,21.20
2023-02-02T00:07:20.872Z,19.70
2023-02-02T00:09:49.225Z,16.90
2023-02-02T00:12:18.326Z,19.60
2023-02-02T00:14:46.668Z,19.70
2023-02-02T00:17:16.168Z,18.90
2023-02-02T00:19:44.358Z,20.70
2023-02-02T00:22:14.183Z,21.10
2023-02-02T00:24:42.173Z,19.40
2023-02-02T00:27:11.250Z,19.90
2023-02-02T00:29:40.151Z,20.20
2023-02-02T00:32:09.274Z,19.20
2023-02-02T00:34:38.260Z,19.10
2023-02-02T00:37:07.068Z,20.70
2023-02-02T00:39:35.367Z,19.60
2023-02-02T00:42:04.427Z,20.20
2023-02-02T00:44:53.958Z,19.90
2023-02-02T00:47:24.463Z,17.70
2023-02-02T00:49:53.691Z,19.90
2023-02-02T00:52:23.126Z,16.40
2023-02-02T00:54:51.967Z,18.50
2023-02-02T00:57:22.479Z,21.30
2023-02-02T00:59:51.059Z,20.70
2023-02-02T01:02:20.579Z,18.70
2023-02-02T01:04:49.247Z,21.40
2023-02-02T01:07:18.634Z,18.70
2023-02-02T01:09:47.980Z,18.60
2023-02-02T01:12:18.537Z,17.90
2023-02-02T01:14:47.750Z,19.20
2023-02-02T01:17:17.667Z,19.40
2023-02-02T01:19:46.508Z,18.50
2023-02-02T01:22:15.409Z,20.10
2023-02-02T01:24:43.828Z,20.00
2023-02-02T01:27:12.432Z,21.80
2023-02-02T01:29:41.079Z,21.40
2023-02-02T01:32:10.925Z,18.00
2023-02-02T01:34:44.141Z,22.30
2023-02-02T01:37:13.327Z,20.80
2023-02-02T01:39:43.051Z,22.00
2023-02-02T01:42:16.734Z,22.00
2023-02-02T01:45:15.139Z,20.50
2023-02-02T01:47:55.201Z,19.70
2023-02-02T01:50:26.401Z,24.40
2023-02-02T01:52:56.024Z,22.00
2023-02-02T01:55:25.775Z,16.50
2023-02-02T01:58:04.115Z,21.20
2023-02-02T02:00:36.375Z,21.10
2023-02-02T02:03:11.764Z,19.00
2023-02-02T02:05:48.022Z,19.80
2023-02-02T02:08:19.688Z,21.20
2023-02-02T02:10:48.587Z,20.40
2023-02-02T02:13:17.602Z,20.00
2023-02-02T02:16:47.775Z,20.70
2023-02-02T02:19:19.316Z,17.50
2023-02-02T02:22:10.155Z,22.30
2023-02-02T02:25:29.926Z,21.70
2023-02-02T02:28:48.267Z,17.20
2023-02-02T02:31:17.095Z,18.10
2023-02-02T02:34:04.578Z,18.40
2023-02-02T02:37:01.151Z,17.60
2023-02-02T02:39:40.105Z,17.00
2023-02-02T02:42:16.453Z,20.90
2023-02-02T02:44:45.688Z,20.00
2023-02-02T02:47:14.644Z,17.00
2023-02-02T02:49:44.066Z,21.30
2023-02-02T02:52:12.750Z,18.50
2023-02-02T02:54:47.573Z,21.10
2023-02-02T02:57:54.967Z,18.80
2023-02-02T03:00:58.061Z,21.80
2023-02-02T03:03:35.564Z,17.90
2023-02-02T03:06:15.955Z,18.30
2023-02-02T03:08:53.205Z,19.80
2023-02-02T03:11:21.539Z,19.10
2023-02-02T03:13:52.503Z,17.40
2023-02-02T03:16:22.500Z,20.30
2023-02-02T03:18:51.710Z,20.30
2023-02-02T03:21:21.024Z,20.30
2023-02-02T03:23:50.138Z,16.90
2023-02-02T03:26:18.349Z,20.60
2023-02-02T03:28:47.195Z,18.60
2023-02-02T03:31:16.176Z,20.70
2023-02-02T03:33:46.157Z,20.90
2023-02-02T03:36:14.534Z,20.20
2023-02-02T03:38:45.105Z,22.00
2023-02-02T03:41:13.291Z,17.40
2023-02-02T03:43:41.905Z,18.20
2023-02-02T03:46:10.710Z,22.20
2023-02-02T03:48:39.332Z,19.70
2023-02-02T03:51:14.771Z,19.60
2023-02-02T03:53:49.982Z,22.90
2023-02-02T03:56:20.299Z,18.80
2023-02-02T03:58:49.015Z,21.70
2023-02-02T04:01:17.599Z,24.60
2023-02-02T04:03:46.628Z,23.10
2023-02-02T04:08:17.160Z,20.10
2023-02-02T04:10:45.855Z,19.70
2023-02-02T04:13:15.195Z,22.10
2023-02-02T04:15:44.030Z,18.70
2023-02-02T04:18:13.206Z,18.10
2023-02-02T04:20:43.826Z,21.00
2023-02-02T04:23:12.999Z,20.30
2023-02-02T04:25:49.128Z,24.10
2023-02-02T04:28:17.971Z,22.60
2023-02-02T04:30:48.045Z,21.40
2023-02-02T04:33:19.235Z,20.20
2023-02-02T04:35:49.148Z,23.40
2023-02-02T04:38:21.199Z,24.00
2023-02-02T04:40:50.383Z,21.90
2023-02-02T04:43:22.471Z,22.70
2023-02-02T04:45:59.096Z,22.30
2023-02-02T04:48:28.683Z,17.30
2023-02-02T04:51:01.700Z,22.70
2023-02-02T04:53:33.320Z,25.30
2023-02-02T04:56:15.207Z,23.50
2023-02-02T04:58:44.404Z,24.00
2023-02-02T05:01:18.023Z,23.70
2023-02-02T05:03:47.702Z,24.40
2023-02-02T05:06:21.562Z,20.50
2023-02-02T05:08:52.078Z,23.90
2023-02-02T05:11:23.405Z,29.50
2023-02-02T05:13:57.233Z,26.10
2023-02-02T05:16:28.966Z,24.90
2023-02-02T05:18:59.704Z,25.40
2023-02-02T05:21:29.215Z,25.40
2023-02-02T05:23:58.011Z,28.70
2023-02-02T05:26:29.730Z,26.40
2023-02-02T05:29:01.313Z,22.60
2023-02-02T05:31:32.762Z,25.60
2023-02-02T05:34:02.129Z,23.70
2023-02-02T05:36:31.663Z,25.10
2023-02-02T05:39:01.365Z,22.00
2023-02-02T05:41:30.403Z,23.80
2023-02-02T05:44:02.382Z,22.90
2023-02-02T05:46:31.426Z,26.30
2023-02-02T05:49:05.348Z,25.10
2023-02-02T05:52:00.817Z,22.70
2023-02-02T05:54:30.241Z,23.10
2023-02-02T05:57:01.382Z,20.90
2023-02-02T05:59:31.097Z,24.30
2023-02-02T06:02:00.715Z,25.40
2023-02-02T06:04:33.855Z,21.00
2023-02-02T06:07:05.057Z,21.90
2023-02-02T06:09:59.644Z,25.50
2023-02-02T06:12:29.115Z,26.30
2023-02-02T06:14:58.237Z,23.50
2023-02-02T06:17:31.846Z,24.90
2023-02-02T06:19:59.687Z,25.80
2023-02-02T06:22:31.616Z,25.00
2023-02-02T06:25:04.997Z,22.90
2023-02-02T06:27:34.105Z,23.70
2023-02-02T06:30:03.344Z,24.50
2023-02-02T06:32:32.829Z,24.30
2023-02-02T06:35:04.113Z,23.80
2023-02-02T06:37:34.268Z,23.70
2023-02-02T06:40:05.220Z,24.40
2023-02-02T06:42:35.310Z,24.40
2023-02-02T06:45:05.158Z,24.70
2023-02-02T06:47:35.239Z,25.20
2023-02-02T06:50:04.256Z,23.10
2023-02-02T06:52:33.231Z,20.70
2023-02-02T06:55:04.412Z,25.00
2023-02-02T07:00:04.841Z,23.30
2023-02-02T07:02:34.431Z,23.30
2023-02-02T07:05:03.870Z,18.90
2023-02-02T07:07:37.107Z,22.10
2023-02-02T07:11:09.672Z,21.10
2023-02-02T07:13:01.967Z,20.90
2023-02-02T07:15:31.711Z,26.70
2023-02-02T07:18:02.930Z,24.20
2023-02-02T07:20:32.758Z,25.50
2023-02-02T07:23:02.906Z,22.10
2023-02-02T07:25:32.176Z,23.70
2023-02-02T07:28:00.894Z,23.60
2023-02-02T07:30:30.331Z,23.20
2023-02-02T07:32:59.279Z,22.30
2023-02-02T07:35:29.764Z,22.00
2023-02-02T07:37:59.570Z,24.60
2023-02-02T07:40:29.487Z,26.00
2023-02-02T07:43:01.156Z,24.20
2023-02-02T07:45:31.267Z,23.00
2023-02-02T07:48:04.098Z,23.60
2023-02-02T07:50:32.807Z,26.00
2023-02-02T07:53:02.255Z,22.90
2023-02-02T07:55:32.733Z,21.70
2023-02-02T07:58:02.295Z,21.60
2023-02-02T08:00:31.999Z,19.90
2023-02-02T08:03:00.845Z,23.60
2023-02-02T08:05:29.758Z,22.30
2023-02-02T08:07:59.713Z,20.20
2023-02-02T08:10:28.937Z,22.40
2023-02-02T08:12:59.693Z,21.80
2023-02-02T08:15:29.414Z,20.30
2023-02-02T08:17:59.385Z,21.10
2023-02-02T08:20:28.902Z,20.50
2023-02-02T08:22:59.147Z,21.50
2023-02-02T08:25:28.584Z,21.30
2023-02-02T08:27:59.082Z,19.80
2023-02-02T08:30:29.302Z,20.00
2023-02-02T08:32:58.346Z,22.80
2023-02-02T08:35:27.916Z,20.60
2023-02-02T08:37:57.359Z,24.00
2023-02-02T08:40:27.295Z,22.10
2023-02-02T08:42:56.492Z,20.70
2023-02-02T08:46:13.915Z,20.30
2023-02-02T08:48:19.712Z,22.10
2023-02-02T08:50:59.756Z,22.10
2023-02-02T08:53:29.048Z,19.40
2023-02-02T08:56:01.307Z,20.30
2023-02-02T08:58:30.967Z,20.40
2023-02-02T09:01:09.440Z,18.50
2023-02-02T09:03:42.145Z,19.80
2023-02-02T09:06:15.868Z,20.00
2023-02-02T09:08:49.359Z,19.10
2023-02-02T09:11:19.187Z,18.50
2023-02-02T09:13:48.921Z,18.10
2023-02-02T09:16:18.480Z,21.60
2023-02-02T09:18:48.243Z,20.30
2023-02-02T09:21:19.040Z,19.20
2023-02-02T09:23:49.674Z,20.30
2023-02-02T09:26:27.597Z,16.10
2023-02-02T09:29:03.284Z,18.30
2023-02-02T09:31:36.947Z,19.50
2023-02-02T09:34:06.725Z,19.70
2023-02-02T09:36:36.689Z,20.80
2023-02-02T09:39:07.212Z,19.10
2023-02-02T09:41:43.026Z,20.40
2023-02-02T09:44:48.570Z,20.50
2023-02-02T09:47:20.390Z,19.20
2023-02-02T09:50:16.954Z,22.00
2023-02-02T09:52:58.345Z,21.40
2023-02-02T09:55:49.656Z,22.90
2023-02-02T09:58:25.489Z,22.50
2023-02-02T10:00:56.898Z,21.10
2023-02-02T10:03:42.876Z,18.80
2023-02-02T10:06:27.862Z,21.00
2023-02-02T10:09:39.869Z,20.50
2023-02-02T10:12:32.841Z,20.10
2023-02-02T10:15:37.084Z,22.60
2023-02-02T10:18:36.729Z,23.60
2023-02-02T10:21:37.450Z,21.00
2023-02-02T10:24:09.940Z,23.70
2023-02-02T10:26:43.317Z,22.00
2023-02-02T10:29:29.241Z,22.10
2023-02-02T10:32:31.428Z,23.00
2023-02-02T10:35:20.939Z,24.50
2023-02-02T10:38:31.175Z,23.70
2023-02-02T10:41:22.157Z,23.10
2023-02-02T10:43:58.459Z,23.50
2023-02-02T10:46:36.337Z,24.80
2023-02-02T10:49:18.447Z,27.10
2023-02-02T10:52:13.588Z,27.30
2023-02-02T10:55:08.463Z,27.10
2023-02-02T10:58:06.093Z,25.90
2023-02-02T11:00:53.739Z,26.90
2023-02-02T11:03:34.386Z,27.00
2023-02-02T11:06:24.269Z,31.80
2023-02-02T11:08:57.704Z,27.50
2023-02-02T11:11:36.358Z,27.10
2023-02-02T11:14:19.042Z,31.90
2023-02-02T11:16:59.920Z,32.10
2023-02-02T11:19:30.893Z,31.70
2023-02-02T11:22:03.296Z,31.10
2023-02-02T11:24:48.663Z,33.40
2023-02-02T11:27:29.130Z,32.60
2023-02-02T11:30:01.233Z,30.00
2023-02-02T11:32:32.788Z,31.80
2023-02-02T11:35:11.826Z,30.50
2023-02-02T11:37:53.397Z,30.70
2023-02-02T11:40:26.811Z,31.20
2023-02-02T11:42:57.558Z,33.70
2023-02-02T11:45:43.306Z,27.50
2023-02-02T11:48:19.118Z,30.80
2023-02-02T11:50:50.965Z,31.50
2023-02-02T11:53:31.806Z,26.60
2023-02-02T11:56:06.975Z,27.80
2023-02-02T11:59:03.968Z,26.80
2023-02-02T12:01:40.688Z,30.10
2023-02-02T12:04:26.293Z,29.40
2023-02-02T12:06:57.822Z,27.70
2023-02-02T12:09:30.066Z,29.70
2023-02-02T12:15:13.827Z,33.20
2023-02-02T12:17:53.827Z,27.90
2023-02-02T12:20:46.475Z,29.20
2023-02-02T12:29:07.885Z,28.50
2023-02-02T12:32:05.360Z,32.60
2023-02-02T12:34:52.599Z,28.50
2023-02-02T12:37:30.327Z,32.20
2023-02-02T12:40:22.802Z,34.30
2023-02-02T12:46:05.823Z,31.80
2023-02-02T12:48:49.798Z,30.00
2023-02-02T12:51:25.374Z,29.20
2023-02-02T12:54:35.011Z,28.40
2023-02-02T12:57:17.401Z,27.80
2023-02-02T12:59:52.313Z,27.20
2023-02-02T13:03:07.081Z,28.50
2023-02-02T13:05:49.365Z,27.30
2023-02-02T13:08:37.869Z,28.00
2023-02-02T13:11:31.825Z,29.60
2023-02-02T13:14:09.157Z,28.70
2023-02-02T13:16:41.396Z,27.00
2023-02-02T13:19:13.582Z,31.20
2023-02-02T13:21:43.744Z,27.90
2023-02-02T13:24:16.064Z,26.40
2023-02-02T13:26:46.506Z,25.70
2023-02-02T13:30:09.352Z,25.90
2023-02-02T13:32:39.511Z,28.50
2023-02-02T13:35:18.990Z,25.20
2023-02-02T13:37:59.245Z,28.00
2023-02-02T13:40:37.348Z,28.40
2023-02-02T13:43:11.268Z,26.60
2023-02-02T13:45:50.225Z,29.20
2023-02-02T13:48:40.294Z,30.30
2023-02-02T13:51:20.646Z,31.90
2023-02-02T13:54:16.253Z,26.10
2023-02-02T13:57:13.930Z,30.40
2023-02-02T13:59:51.915Z,32.50
2023-02-02T14:02:43.240Z,27.60
2023-02-02T14:05:23.216Z,29.30
2023-02-02T14:08:06.956Z,33.70
2023-02-02T14:10:41.338Z,29.70
2023-02-02T14:13:35.737Z,30.40
2023-02-02T14:16:08.343Z,34.50
2023-02-02T14:18:54.886Z,33.70
2023-02-02T14:21:35.551Z,33.30
2023-02-02T14:24:05.210Z,34.90
2023-02-02T14:26:49.273Z,30.10
2023-02-02T14:29:36.856Z,34.20
2023-02-02T14:32:30.665Z,36.10
2023-02-02T14:35:16.194Z,34.40
2023-02-02T14:38:02.393Z,32.80
2023-02-02T14:41:14.307Z,32.80
2023-02-02T14:43:51.077Z,31.70
2023-02-02T14:46:25.689Z,30.20
2023-02-02T14:48:59.924Z,30.10
2023-02-02T14:51:30.332Z,30.20
2023-02-02T14:54:03.949Z,35.00
2023-02-02T14:56:52.513Z,30.00
2023-02-02T14:59:34.908Z,29.90
2023-02-02T15:02:12.474Z,27.40
2023-02-02T15:04:50.580Z,26.70
2023-02-02T15:07:44.604Z,26.70
2023-02-02T15:10:47.309Z,28.10
2023-02-02T15:13:16.343Z,27.50
2023-02-02T15:15:45.020Z,28.70
2023-02-02T15:18:16.750Z,26.60
2023-02-02T15:20:50.054Z,27.40
2023-02-02T15:23:23.617Z,28.00
2023-02-02T15:26:01.897Z,25.60
2023-02-02T15:28:40.016Z,27.30
2023-02-02T15:31:21.069Z,22.30
2023-02-02T15:33:51.518Z,25.00
2023-02-02T15:36:21.338Z,30.00
2023-02-02T15:38:53.603Z,25.80
2023-02-02T15:44:28.611Z,23.70
2023-02-02T15:46:58.558Z,27.80
2023-02-02T15:49:35.447Z,26.90
2023-02-02T15:52:43.045Z,25.20
2023-02-02T15:55:31.977Z,29.40
2023-02-02T15:58:03.835Z,27.90
2023-02-02T16:00:36.276Z,30.50
2023-02-02T16:03:19.565Z,27.60
2023-02-02T16:05:52.175Z,28.80
2023-02-02T16:08:36.540Z,28.30
2023-02-02T16:11:11.317Z,28.10
2023-02-02T16:14:12.210Z,29.00
2023-02-02T16:16:46.204Z,24.80
2023-02-02T16:19:43.395Z,28.60
2023-02-02T16:22:25.718Z,27.70
2023-02-02T16:27:34.413Z,26.80
2023-02-02T16:30:22.791Z,25.10
2023-02-02T16:32:51.950Z,26.90
2023-02-02T16:35:34.491Z,23.10
2023-02-02T16:41:07.846Z,24.20
2023-02-02T16:43:37.631Z,21.50
2023-02-02T16:46:10.194Z,26.10
2023-02-02T16:48:40.304Z,23.60
2023-02-02T16:51:17.940Z,23.10
2023-02-02T16:54:05.973Z,22.80
2023-02-02T16:56:44.239Z,24.40
2023-02-02T16:59:25.805Z,22.70
2023-02-02T17:01:59.471Z,23.30
2023-02-02T17:04:30.159Z,24.40
2023-02-02T17:07:14.239Z,20.40
2023-02-02T17:10:13.822Z,25.50
2023-02-02T17:13:07.336Z,25.40
2023-02-02T17:15:42.395Z,22.00
2023-02-02T17:18:11.866Z,25.40
2023-02-02T17:20:40.476Z,24.60
2023-02-02T17:23:23.152Z,23.00
2023-02-02T17:25:56.414Z,22.20
2023-02-02T17:28:26.653Z,25.50
2023-02-02T17:31:02.046Z,27.50
2023-02-02T17:33:35.543Z,24.70
2023-02-02T17:36:04.349Z,26.70
2023-02-02T17:38:33.558Z,25.30
2023-02-02T17:41:04.723Z,23.60
2023-02-02T17:43:40.455Z,25.40
2023-02-02T17:46:16.818Z,25.90
2023-02-02T17:48:46.865Z,28.10
2023-02-02T17:51:20.667Z,24.80
2023-02-02T18:00:29.309Z,23.70
2023-02-02T18:03:02.571Z,25.40
2023-02-02T18:05:32.418Z,24.60
2023-02-02T18:08:03.153Z,28.10
2023-02-02T18:10:44.858Z,25.10
2023-02-02T18:13:16.528Z,25.50
2023-02-02T18:15:46.243Z,23.20
2023-02-02T18:18:15.221Z,26.10
2023-02-02T18:20:46.922Z,24.50
2023-02-02T18:23:16.912Z,27.20
2023-02-02T18:25:45.726Z,28.50
2023-02-02T18:28:17.597Z,29.20
2023-02-02T18:30:47.242Z,28.70
2023-02-02T18:33:20.378Z,29.80
2023-02-02T18:35:51.101Z,27.00
2023-02-02T18:38:26.828Z,29.00
2023-02-02T18:41:06.643Z,28.00
2023-02-02T18:43:34.775Z,28.00
2023-02-02T18:46:08.332Z,30.00
2023-02-02T18:48:39.261Z,28.70
2023-02-02T18:51:08.304Z,27.00
2023-02-02T18:53:37.700Z,30.40
2023-02-02T18:56:09.888Z,26.50
2023-02-02T18:58:40.570Z,29.10
2023-02-02T19:01:09.572Z,27.70
2023-02-02T19:03:38.865Z,30.00
2023-02-02T19:06:28.688Z,27.20
2023-02-02T19:08:57.951Z,27.70
2023-02-02T19:11:32.548Z,30.90
2023-02-02T19:14:05.418Z,27.60
2023-02-02T19:23:08.944Z,31.10
2023-02-02T19:25:40.001Z,30.60
2023-02-02T19:28:23.355Z,26.70
2023-02-02T19:30:58.595Z,22.70
2023-02-02T19:33:51.568Z,26.80
2023-02-02T19:36:22.592Z,25.60
2023-02-02T19:39:12.928Z,28.70
2023-02-02T19:41:44.097Z,30.50
2023-02-02T19:44:22.237Z,33.00
2023-02-02T19:46:53.504Z,28.60
2023-02-02T19:49:30.536Z,28.50
2023-02-02T19:51:59.698Z,28.80
2023-02-02T19:54:31.887Z,25.70
2023-02-02T19:57:06.931Z,24.50
2023-02-02T19:59:37.036Z,24.60
2023-02-02T20:02:48.583Z,26.00
2023-02-02T20:08:28.902Z,27.40
2023-02-02T20:11:03.272Z,25.70
2023-02-02T20:13:47.899Z,25.10
2023-02-02T20:16:27.979Z,28.40
2023-02-02T20:18:57.433Z,28.20
2023-02-02T20:21:42.425Z,25.60
2023-02-02T20:24:24.304Z,22.40
2023-02-02T20:26:54.283Z,23.10
2023-02-02T20:29:41.417Z,22.70
2023-02-02T20:32:21.896Z,22.70
2023-02-02T20:34:52.302Z,23.10
2023-02-02T20:37:35.329Z,23.00
2023-02-02T20:40:21.765Z,26.60
2023-02-02T20:42:52.067Z,23.90
2023-02-02T20:45:23.049Z,28.10
2023-02-02T20:47:53.090Z,21.20
2023-02-02T20:52:56.125Z,24.50
2023-02-02T20:55:26.852Z,22.50
2023-02-02T20:57:59.120Z,24.00
2023-02-02T21:00:30.666Z,21.90
2023-02-02T21:05:35.587Z,23.50
2023-02-02T21:08:07.249Z,21.20
2023-02-02T21:10:37.285Z,20.10
2023-02-02T21:13:08.787Z,22.00
2023-02-02T21:15:38.687Z,21.30
2023-02-02T21:18:09.955Z,22.40
2023-02-02T21:20:39.242Z,21.90
2023-02-02T21:23:11.070Z,24.00
2023-02-02T21:25:39.965Z,23.60
2023-02-02T21:28:10.019Z,19.60
2023-02-02T21:30:39.476Z,22.90
2023-02-02T21:33:08.204Z,20.70
2023-02-02T21:35:36.497Z,22.90
2023-02-02T21:38:11.141Z,24.00
2023-02-02T21:40:40.278Z,18.20
2023-02-02T21:43:15.559Z,20.20
2023-02-02T21:45:45.578Z,21.60
2023-02-02T21:48:33.508Z,20.70
2023-02-02T21:51:22.985Z,21.20
2023-02-02T21:53:51.413Z,19.60
2023-02-02T21:56:39.504Z,23.20
2023-02-02T21:59:17.156Z,18.80
2023-02-02T22:01:47.645Z,20.20
2023-02-02T22:04:16.935Z,21.50
2023-02-02T22:06:48.738Z,23.00
2023-02-02T22:09:25.010Z,20.80
2023-02-02T22:12:02.215Z,20.90
2023-02-02T22:14:47.607Z,18.60
2023-02-02T22:17:26.712Z,18.70
2023-02-02T22:20:27.752Z,19.70
2023-02-02T22:22:56.320Z,19.10
2023-02-02T22:25:34.155Z,20.50
2023-02-02T22:28:41.218Z,21.40
2023-02-02T22:31:12.042Z,17.60
2023-02-02T22:33:44.827Z,20.10
2023-02-02T22:36:14.005Z,18.90
2023-02-02T22:38:42.795Z,18.40
2023-02-02T22:41:11.775Z,16.60
2023-02-02T22:43:40.551Z,18.30
2023-02-02T22:46:10.939Z,14.20
2023-02-02T22:48:40.198Z,12.70
2023-02-02T22:51:09.475Z,12.00
2023-02-02T22:53:38.045Z,13.80
2023-02-02T22:56:07.243Z,13.10
2023-02-02T22:58:36.385Z,12.40
2023-02-02T23:01:05.454Z,13.50
2023-02-02T23:03:35.029Z,11.80
2023-02-02T23:06:28.473Z,11.60
2023-02-02T23:08:59.114Z,13.70
2023-02-02T23:11:27.753Z,13.60
2023-02-02T23:13:57.715Z,14.90
2023-02-02T23:16:26.556Z,13.20
2023-02-02T23:18:57.972Z,15.60
2023-02-02T23:21:26.335Z,15.10
2023-02-02T23:23:56.090Z,19.30
2023-02-02T23:26:25.524Z,20.90
2023-02-02T23:28:53.584Z,18.00
2023-02-02T23:31:21.408Z,20.90
2023-02-02T23:33:50.007Z,20.60
2023-02-02T23:36:20.997Z,21.90
2023-02-02T23:38:49.241Z,20.50
2023-02-02T23:41:17.213Z,21.00
2023-02-02T23:43:44.318Z,20.80
2023-02-02T23:46:11.739Z,17.00
2023-02-02T23:48:41.472Z,18.30
2023-02-02T23:51:09.056Z,19.10
2023-02-02T23:53:36.895Z,21.70
2023-02-02T23:56:05.809Z,19.10
2023-02-02T23:58:33.413Z,23.40
